Contact Us

METAR/TAF »

TAF 14.12.2018

TAF EGTC 140903Z 1409/1418 08005KT 9000 SCT045 BECMG 1409/1411 9999

METAR 14.12.2018

EGTC 140920Z 00000KT 9999 BKN047 M00/M01 Q1022

Travel times »

Milton Keynes

6 mins N/A 10 mins

London

20 mins 35 mins from MK 55 mins

Northampton

10 mins 19 mins from MK 30 mins

Silverstone Circuit

6 mins N/A 27 mins

Contact Us

PPR Request - Cranfield Air Traffic Control

Telephone Number : +44 (0) 1234 750005 - telephone for PPR.

Email: atc@cranfield.ac.uk

Airport Administration

Telephone Number : + 44 (0) 1234 758150

Email : airport@cranfield.ac.uk

Airport Accounts

Telephone Number : +44 (0) 1234 758151

Email : airportaccounts@cranfield.ac.uk

Airport Handling - Business Jets

Telephone Number : +44 (0) 1234 758114

Out of Hours Telephone Number : +44 (0) 7810 657826

Email : airporthandling@cranfield.ac.uk

Cranfield Airport Briefing Room

Telephone : +44 (0) 1234 758113

Email : airport-briefing@cranfield.ac.uk

Cranfield University Main Reception

Telephone Number : +44 (0) 1234 750111

Click here for directions by car to Cranfield Airport.